createdAt,value
2023-02-06T00:00:24.688Z,2.60
2023-02-06T00:02:53.948Z,2.60
2023-02-06T00:05:23.023Z,2.60
2023-02-06T00:07:51.904Z,2.60
2023-02-06T00:10:21.017Z,2.60
2023-02-06T00:12:50.205Z,2.60
2023-02-06T00:15:20.816Z,2.60
2023-02-06T00:17:49.880Z,2.60
2023-02-06T00:20:19.074Z,2.60
2023-02-06T00:22:48.212Z,2.60
2023-02-06T00:25:17.219Z,2.60
2023-02-06T00:27:46.238Z,2.60
2023-02-06T00:30:15.924Z,2.60
2023-02-06T00:32:46.416Z,2.60
2023-02-06T00:35:15.710Z,2.60
2023-02-06T00:37:44.723Z,2.60
2023-02-06T00:40:14.353Z,2.60
2023-02-06T00:42:43.462Z,2.60
2023-02-06T00:45:12.820Z,2.60
2023-02-06T00:47:43.173Z,2.60
2023-02-06T00:50:13.814Z,2.60
2023-02-06T00:52:45.480Z,2.60
2023-02-06T00:55:14.548Z,2.60
2023-02-06T00:57:43.614Z,2.60
2023-02-06T01:00:13.904Z,2.60
2023-02-06T01:02:43.078Z,2.60
2023-02-06T01:05:13.856Z,2.60
2023-02-06T01:07:42.927Z,2.60
2023-02-06T01:10:13.338Z,2.50
2023-02-06T01:12:42.713Z,2.60
2023-02-06T01:15:14.045Z,2.50
2023-02-06T01:17:43.433Z,2.50
2023-02-06T01:20:16.189Z,2.50
2023-02-06T01:22:45.237Z,2.60
2023-02-06T01:25:14.232Z,2.60
2023-02-06T01:27:43.195Z,2.60
2023-02-06T01:30:14.129Z,2.60
2023-02-06T01:32:44.072Z,2.60
2023-02-06T01:35:15.168Z,2.60
2023-02-06T01:37:44.348Z,2.60
2023-02-06T01:40:16.261Z,2.60
2023-02-06T01:42:45.248Z,2.70
2023-02-06T01:45:45.121Z,2.70
2023-02-06T01:48:19.470Z,2.70
2023-02-06T01:50:55.572Z,2.70
2023-02-06T01:53:25.723Z,2.70
2023-02-06T01:55:57.425Z,2.70
2023-02-06T01:58:31.672Z,2.70
2023-02-06T02:01:01.863Z,2.70
2023-02-06T02:03:33.548Z,2.70
2023-02-06T02:06:09.185Z,2.80
2023-02-06T02:08:41.425Z,2.70
2023-02-06T02:11:13.131Z,2.80
2023-02-06T02:13:42.458Z,2.80
2023-02-06T02:16:19.711Z,2.70
2023-02-06T02:19:06.895Z,2.70
2023-02-06T02:22:25.640Z,2.70
2023-02-06T02:25:19.178Z,2.70
2023-02-06T02:28:14.990Z,2.70
2023-02-06T02:31:05.974Z,2.70
2023-02-06T02:34:30.797Z,2.70
2023-02-06T02:37:08.526Z,2.70
2023-02-06T02:39:45.555Z,2.60
2023-02-06T02:42:21.327Z,2.60
2023-02-06T02:44:56.372Z,2.60
2023-02-06T02:47:30.153Z,2.60
2023-02-06T02:50:02.014Z,2.60
2023-02-06T02:52:30.977Z,2.60
2023-02-06T02:55:01.675Z,2.60
2023-02-06T02:57:33.176Z,2.50
2023-02-06T03:00:03.672Z,2.60
2023-02-06T03:02:38.098Z,2.50
2023-02-06T03:05:12.991Z,2.50
2023-02-06T03:07:54.474Z,2.50
2023-02-06T03:10:33.861Z,2.40
2023-02-06T03:13:08.302Z,2.40
2023-02-06T03:15:44.523Z,2.40
2023-02-06T03:18:17.562Z,2.40
2023-02-06T03:20:49.973Z,2.40
2023-02-06T03:23:23.894Z,2.40
2023-02-06T03:25:57.352Z,2.40
2023-02-06T03:28:30.000Z,2.40
2023-02-06T03:31:01.103Z,2.40
2023-02-06T03:33:35.654Z,2.40
2023-02-06T03:36:16.094Z,2.40
2023-02-06T03:38:50.867Z,2.40
2023-02-06T03:41:24.281Z,2.40
2023-02-06T03:43:55.194Z,2.40
2023-02-06T03:46:27.355Z,2.50
2023-02-06T03:49:01.363Z,2.50
2023-02-06T03:51:36.523Z,2.50
2023-02-06T03:54:07.829Z,2.40
2023-02-06T03:56:40.899Z,2.40
2023-02-06T03:59:10.094Z,2.50
2023-02-06T04:01:42.531Z,2.50
2023-02-06T04:04:11.632Z,2.50
2023-02-06T04:06:42.131Z,2.50
2023-02-06T04:09:11.458Z,2.50
2023-02-06T04:11:40.784Z,2.50
2023-02-06T04:14:09.876Z,2.50
2023-02-06T04:16:39.012Z,2.50
2023-02-06T04:19:08.303Z,2.50
2023-02-06T04:21:37.282Z,2.50
2023-02-06T04:24:08.111Z,2.50
2023-02-06T04:26:37.228Z,2.50
2023-02-06T04:29:06.356Z,2.50
2023-02-06T04:31:35.435Z,2.50
2023-02-06T04:34:04.541Z,2.50
2023-02-06T04:36:33.638Z,2.60
2023-02-06T04:39:02.962Z,2.50
2023-02-06T04:41:33.313Z,2.50
2023-02-06T04:44:02.627Z,2.50
2023-02-06T04:46:31.710Z,2.60
2023-02-06T04:49:00.700Z,2.60
2023-02-06T04:51:29.841Z,2.60
2023-02-06T04:53:59.040Z,2.60
2023-02-06T04:56:28.112Z,2.60
2023-02-06T04:58:58.633Z,2.60
2023-02-06T05:01:27.764Z,2.60
2023-02-06T05:03:56.684Z,2.60
2023-02-06T05:06:25.627Z,2.50
2023-02-06T05:08:54.777Z,2.50
2023-02-06T05:11:25.305Z,2.60
2023-02-06T05:13:54.381Z,2.50
2023-02-06T05:16:25.065Z,2.50
2023-02-06T05:18:55.804Z,2.50
2023-02-06T05:21:25.597Z,2.50
2023-02-06T05:23:54.772Z,2.50
2023-02-06T05:26:23.743Z,2.60
2023-02-06T05:28:52.900Z,2.50
2023-02-06T05:31:23.489Z,2.50
2023-02-06T05:33:53.755Z,2.50
2023-02-06T05:36:23.834Z,2.50
2023-02-06T05:38:53.291Z,2.60
2023-02-06T05:41:22.392Z,2.60
2023-02-06T05:43:51.512Z,2.60
2023-02-06T05:46:40.760Z,2.60
2023-02-06T05:49:09.847Z,2.60
2023-02-06T05:51:38.990Z,2.60
2023-02-06T05:54:08.073Z,2.60
2023-02-06T05:56:37.005Z,2.60
2023-02-06T05:59:06.156Z,2.60
2023-02-06T06:01:35.241Z,2.60
2023-02-06T06:04:05.881Z,2.60
2023-02-06T06:06:34.984Z,2.60
2023-02-06T06:09:04.009Z,2.60
2023-02-06T06:11:33.681Z,2.60
2023-02-06T06:14:02.864Z,2.60
2023-02-06T06:16:31.894Z,2.50
2023-02-06T06:19:02.027Z,2.50
2023-02-06T06:21:32.695Z,2.50
2023-02-06T06:24:01.942Z,2.50
2023-02-06T06:26:30.978Z,2.60
2023-02-06T06:29:00.038Z,2.60
2023-02-06T06:31:29.039Z,2.60
2023-02-06T06:33:58.194Z,2.60
2023-02-06T06:36:27.167Z,2.60
2023-02-06T06:38:57.703Z,2.60
2023-02-06T06:41:26.707Z,2.60
2023-02-06T06:43:57.576Z,2.60
2023-02-06T06:46:26.903Z,2.60
2023-02-06T06:48:55.913Z,2.70
2023-02-06T06:51:27.112Z,2.70
2023-02-06T06:53:57.856Z,2.70
2023-02-06T06:56:27.282Z,2.70
2023-02-06T06:58:56.353Z,2.70
2023-02-06T07:01:25.534Z,2.70
2023-02-06T07:03:54.620Z,2.70
2023-02-06T07:06:23.595Z,2.70
2023-02-06T07:08:52.726Z,2.70
2023-02-06T07:11:24.596Z,2.70
2023-02-06T07:13:53.794Z,2.70
2023-02-06T07:16:23.199Z,2.70
2023-02-06T07:18:52.259Z,2.70
2023-02-06T07:21:21.341Z,2.70
2023-02-06T07:23:50.337Z,2.60
2023-02-06T07:26:19.399Z,2.70
2023-02-06T07:28:50.120Z,2.70
2023-02-06T07:31:19.380Z,2.70
2023-02-06T07:33:48.471Z,2.70
2023-02-06T07:36:18.653Z,2.70
2023-02-06T07:38:48.167Z,2.70
2023-02-06T07:41:18.164Z,2.70
2023-02-06T07:43:48.793Z,2.70
2023-02-06T07:46:17.942Z,2.70
2023-02-06T07:48:46.894Z,2.70
2023-02-06T07:51:15.835Z,2.70
2023-02-06T07:53:44.775Z,2.70
2023-02-06T07:56:16.145Z,2.70
2023-02-06T07:58:45.529Z,2.70
2023-02-06T08:01:16.081Z,2.70
2023-02-06T08:03:45.246Z,2.70
2023-02-06T08:06:17.039Z,2.70
2023-02-06T08:08:46.348Z,2.70
2023-02-06T08:11:18.897Z,2.70
2023-02-06T08:13:48.744Z,2.70
2023-02-06T08:16:21.282Z,2.70
2023-02-06T08:18:51.383Z,2.70
2023-02-06T08:21:22.397Z,2.70
2023-02-06T08:23:56.020Z,2.70
2023-02-06T08:26:25.562Z,2.70
2023-02-06T08:28:55.205Z,3.10
2023-02-06T08:31:29.306Z,2.70
2023-02-06T08:33:58.905Z,2.70
2023-02-06T08:36:30.030Z,2.80
2023-02-06T08:38:59.054Z,2.80
2023-02-06T08:41:30.761Z,2.90
2023-02-06T08:44:01.299Z,2.90
2023-02-06T08:46:33.684Z,3.00
2023-02-06T08:49:05.002Z,3.00
2023-02-06T08:51:35.209Z,3.00
2023-02-06T08:54:06.303Z,3.10
2023-02-06T08:56:44.001Z,3.10
2023-02-06T08:59:27.641Z,3.20
2023-02-06T09:02:06.577Z,3.20
2023-02-06T09:04:50.833Z,3.20
2023-02-06T09:07:26.568Z,3.30
2023-02-06T09:09:56.625Z,3.30
2023-02-06T09:12:27.073Z,3.40
2023-02-06T09:14:56.869Z,3.40
2023-02-06T09:17:31.700Z,3.50
2023-02-06T09:20:02.177Z,3.50
2023-02-06T09:22:31.992Z,3.50
2023-02-06T09:25:01.760Z,3.60
2023-02-06T09:27:41.122Z,3.60
2023-02-06T09:30:20.855Z,3.70
2023-02-06T09:32:53.472Z,3.70
2023-02-06T09:35:24.438Z,3.70
2023-02-06T09:37:59.252Z,3.80
2023-02-06T09:40:48.432Z,3.80
2023-02-06T09:43:18.620Z,3.80
2023-02-06T09:45:48.296Z,3.90
2023-02-06T09:48:22.580Z,3.90
2023-02-06T09:51:01.704Z,3.90
2023-02-06T09:53:43.722Z,3.90
2023-02-06T09:56:22.932Z,4.00
2023-02-06T09:59:03.470Z,4.00
2023-02-06T10:01:43.601Z,4.10
2023-02-06T10:04:49.633Z,4.10
2023-02-06T10:07:31.377Z,4.20
2023-02-06T10:10:06.497Z,4.30
2023-02-06T10:12:42.345Z,4.40
2023-02-06T10:15:16.026Z,4.50
2023-02-06T10:17:51.963Z,4.60
2023-02-06T10:20:30.345Z,4.60
2023-02-06T10:23:10.327Z,4.70
2023-02-06T10:25:43.772Z,4.80
2023-02-06T10:28:24.009Z,4.90
2023-02-06T10:31:18.067Z,4.90
2023-02-06T10:34:20.364Z,5.00
2023-02-06T10:37:03.219Z,5.00
2023-02-06T10:39:53.876Z,5.10
2023-02-06T10:42:30.997Z,5.00
2023-02-06T10:45:18.896Z,5.00
2023-02-06T10:47:54.589Z,4.90
2023-02-06T10:50:30.348Z,4.90
2023-02-06T10:53:05.626Z,4.90
2023-02-06T10:55:40.199Z,4.90
2023-02-06T10:58:29.881Z,4.90
2023-02-06T11:01:01.355Z,4.90
2023-02-06T11:03:33.543Z,4.90
2023-02-06T11:06:04.481Z,4.90
2023-02-06T11:08:42.061Z,4.90
2023-02-06T11:11:21.845Z,4.90
2023-02-06T11:13:56.103Z,4.90
2023-02-06T11:16:28.756Z,4.90
2023-02-06T11:19:01.947Z,4.90
2023-02-06T11:21:55.788Z,4.90
2023-02-06T11:24:26.890Z,4.90
2023-02-06T11:26:58.332Z,4.90
2023-02-06T11:29:29.325Z,4.90
2023-02-06T11:32:00.409Z,5.00
2023-02-06T11:34:31.799Z,5.00
2023-02-06T11:37:05.225Z,5.00
2023-02-06T11:39:37.813Z,5.00
2023-02-06T11:42:08.951Z,5.00
2023-02-06T11:44:40.522Z,5.00
2023-02-06T11:47:29.724Z,4.90
2023-02-06T11:49:59.058Z,4.90
2023-02-06T11:52:33.571Z,5.00
2023-02-06T11:55:04.179Z,5.00
2023-02-06T11:57:35.154Z,4.90
2023-02-06T12:00:20.118Z,5.00
2023-02-06T12:02:54.441Z,4.90
2023-02-06T12:05:27.092Z,4.90
2023-02-06T12:08:02.958Z,4.90
2023-02-06T12:10:37.329Z,4.90
2023-02-06T12:13:15.222Z,4.90
2023-02-06T12:15:48.635Z,4.90
2023-02-06T12:18:20.549Z,4.90
2023-02-06T12:20:53.469Z,4.90
2023-02-06T12:23:27.930Z,4.90
2023-02-06T12:26:01.474Z,4.80
2023-02-06T12:28:57.502Z,4.80
2023-02-06T12:31:32.777Z,4.80
2023-02-06T12:34:12.736Z,4.80
2023-02-06T12:36:53.772Z,4.80
2023-02-06T12:39:24.544Z,4.70
2023-02-06T12:42:33.431Z,4.80
2023-02-06T12:45:09.139Z,4.80
2023-02-06T12:47:44.501Z,4.80
2023-02-06T12:50:20.932Z,4.70
2023-02-06T12:52:54.583Z,4.70
2023-02-06T12:55:46.703Z,4.70
2023-02-06T12:58:30.266Z,4.70
2023-02-06T13:01:34.139Z,4.70
2023-02-06T13:04:06.768Z,4.80
2023-02-06T13:06:45.039Z,4.80
2023-02-06T13:09:22.252Z,4.70
2023-02-06T13:11:51.678Z,4.70
2023-02-06T13:14:33.352Z,4.70
2023-02-06T13:17:12.149Z,4.60
2023-02-06T13:20:04.236Z,4.60
2023-02-06T13:22:44.978Z,4.50
2023-02-06T13:25:56.716Z,4.50
2023-02-06T13:28:48.415Z,4.40
2023-02-06T13:31:28.136Z,4.40
2023-02-06T13:34:01.039Z,4.30
2023-02-06T13:36:49.342Z,4.30
2023-02-06T13:39:35.284Z,4.20
2023-02-06T13:42:33.760Z,4.20
2023-02-06T13:45:06.697Z,4.20
2023-02-06T13:48:09.385Z,4.20
2023-02-06T13:51:05.333Z,4.20
2023-02-06T13:54:10.195Z,4.20
2023-02-06T13:56:52.910Z,4.20
2023-02-06T13:59:25.880Z,4.20
2023-02-06T14:01:55.602Z,4.20
2023-02-06T14:04:28.943Z,4.20
2023-02-06T14:07:25.239Z,4.20
2023-02-06T14:10:22.816Z,4.20
2023-02-06T14:13:05.104Z,4.10
2023-02-06T14:15:42.913Z,4.10
2023-02-06T14:18:32.150Z,4.10
2023-02-06T14:21:11.703Z,4.10
2023-02-06T14:24:05.569Z,4.10
2023-02-06T14:26:45.432Z,4.10
2023-02-06T14:29:25.089Z,4.10
2023-02-06T14:32:15.494Z,4.10
2023-02-06T14:34:59.824Z,4.10
2023-02-06T14:37:43.457Z,4.10
2023-02-06T14:40:16.729Z,4.10
2023-02-06T14:42:47.639Z,4.00
2023-02-06T14:45:27.274Z,4.00
2023-02-06T14:47:58.011Z,4.00
2023-02-06T14:50:29.874Z,4.00
2023-02-06T14:53:04.441Z,3.90
2023-02-06T14:55:36.913Z,3.90
2023-02-06T14:58:08.957Z,3.90
2023-02-06T15:00:39.594Z,3.80
2023-02-06T15:03:15.641Z,3.80
2023-02-06T15:05:45.243Z,3.80
2023-02-06T15:08:21.683Z,3.80
2023-02-06T15:10:59.904Z,3.80
2023-02-06T15:13:35.257Z,3.70
2023-02-06T15:16:06.758Z,3.70
2023-02-06T15:18:37.541Z,3.70
2023-02-06T15:21:13.874Z,3.70
2023-02-06T15:23:58.334Z,3.70
2023-02-06T15:26:36.958Z,3.70
2023-02-06T15:29:08.789Z,3.70
2023-02-06T15:31:41.311Z,3.60
2023-02-06T15:34:18.074Z,3.60
2023-02-06T15:36:47.262Z,3.70
2023-02-06T15:39:22.380Z,3.70
2023-02-06T15:41:53.504Z,3.60
2023-02-06T15:44:29.711Z,3.60
2023-02-06T15:46:59.496Z,3.60
2023-02-06T15:49:37.948Z,3.60
2023-02-06T15:52:07.572Z,3.60
2023-02-06T15:54:40.517Z,3.60
2023-02-06T15:57:20.660Z,3.60
2023-02-06T15:59:50.128Z,3.60
2023-02-06T16:02:24.876Z,3.50
2023-02-06T16:04:55.754Z,3.50
2023-02-06T16:07:27.689Z,3.50
2023-02-06T16:10:06.339Z,3.50
2023-02-06T16:12:36.900Z,3.40
2023-02-06T16:15:26.668Z,3.40
2023-02-06T16:17:56.383Z,3.40
2023-02-06T16:20:39.973Z,3.40
2023-02-06T16:23:24.946Z,3.40
2023-02-06T16:26:09.236Z,3.40
2023-02-06T16:28:43.652Z,3.50
2023-02-06T16:31:15.869Z,3.50
2023-02-06T16:33:47.630Z,3.50
2023-02-06T16:36:18.719Z,3.50
2023-02-06T16:38:57.679Z,3.50
2023-02-06T16:41:36.488Z,3.50
2023-02-06T16:44:08.912Z,3.60
2023-02-06T16:46:39.817Z,3.60
2023-02-06T16:49:13.038Z,3.60
2023-02-06T16:51:44.426Z,3.50
2023-02-06T16:54:20.469Z,3.50
2023-02-06T16:56:51.970Z,3.50
2023-02-06T16:59:21.024Z,3.40
2023-02-06T17:02:02.997Z,3.40
2023-02-06T17:04:32.236Z,3.40
2023-02-06T17:07:01.304Z,3.40
2023-02-06T17:09:30.579Z,3.40
2023-02-06T17:12:01.072Z,3.30
2023-02-06T17:14:30.064Z,3.30
2023-02-06T17:16:59.273Z,3.30
2023-02-06T17:19:28.551Z,3.30
2023-02-06T17:21:57.499Z,3.30
2023-02-06T17:24:26.516Z,3.30
2023-02-06T17:26:55.505Z,3.30
2023-02-06T17:29:25.996Z,3.40
2023-02-06T17:31:55.162Z,3.40
2023-02-06T17:34:25.819Z,3.40
2023-02-06T17:36:55.402Z,3.40
2023-02-06T17:39:24.931Z,3.40
2023-02-06T17:41:53.982Z,3.40
2023-02-06T17:44:22.984Z,3.40
2023-02-06T17:46:53.546Z,3.40
2023-02-06T17:49:22.663Z,3.40
2023-02-06T17:51:52.194Z,3.40
2023-02-06T17:54:21.259Z,3.40
2023-02-06T17:56:50.458Z,3.50
2023-02-06T17:59:19.757Z,3.50
2023-02-06T18:01:48.823Z,3.50
2023-02-06T18:04:21.567Z,3.50
2023-02-06T18:06:51.415Z,3.50
2023-02-06T18:09:20.439Z,3.60
2023-02-06T18:11:49.620Z,3.60
2023-02-06T18:14:18.831Z,3.60
2023-02-06T18:16:47.921Z,3.60
2023-02-06T18:19:19.262Z,3.60
2023-02-06T18:21:49.932Z,3.60
2023-02-06T18:24:19.323Z,3.60
2023-02-06T18:26:48.364Z,3.60
2023-02-06T18:29:17.423Z,3.60
2023-02-06T18:31:47.124Z,3.60
2023-02-06T18:34:16.249Z,3.60
2023-02-06T18:36:45.352Z,3.60
2023-02-06T18:39:16.541Z,3.60
2023-02-06T18:42:03.117Z,3.60
2023-02-06T18:44:32.595Z,3.60
2023-02-06T18:47:01.582Z,3.60
2023-02-06T18:49:30.638Z,3.60
2023-02-06T18:51:59.769Z,3.60
2023-02-06T18:54:30.496Z,3.60
2023-02-06T18:56:59.618Z,3.60
2023-02-06T18:59:37.900Z,3.60
2023-02-06T19:02:10.102Z,3.60
2023-02-06T19:04:41.181Z,3.50
2023-02-06T19:07:28.702Z,3.50
2023-02-06T19:10:00.900Z,3.50
2023-02-06T19:12:30.812Z,3.60
2023-02-06T19:15:00.707Z,3.60
2023-02-06T19:17:30.123Z,3.60
2023-02-06T19:19:59.190Z,3.60
2023-02-06T19:22:29.319Z,3.60
2023-02-06T19:24:59.973Z,3.60
2023-02-06T19:27:29.210Z,3.70
2023-02-06T19:29:58.206Z,3.70
2023-02-06T19:32:29.162Z,3.70
2023-02-06T19:34:58.404Z,3.70
2023-02-06T19:37:27.460Z,3.70
2023-02-06T19:39:56.573Z,3.70
2023-02-06T19:42:44.508Z,3.80
2023-02-06T19:45:15.261Z,3.80
2023-02-06T19:47:44.647Z,3.80
2023-02-06T19:50:14.462Z,3.70
2023-02-06T19:52:43.701Z,3.80
2023-02-06T19:55:12.994Z,3.80
2023-02-06T19:57:43.568Z,3.80
2023-02-06T20:00:13.776Z,3.80
2023-02-06T20:02:43.001Z,3.90
2023-02-06T20:05:12.155Z,3.90
2023-02-06T20:07:41.303Z,3.90
2023-02-06T20:10:10.999Z,3.90
2023-02-06T20:12:40.075Z,3.90
2023-02-06T20:15:11.483Z,3.90
2023-02-06T20:17:40.744Z,3.90
2023-02-06T20:20:11.111Z,3.90
2023-02-06T20:22:40.581Z,3.90
2023-02-06T20:25:10.280Z,3.90
2023-02-06T20:27:39.393Z,3.90
2023-02-06T20:30:11.608Z,3.90
2023-02-06T20:32:40.934Z,3.80
2023-02-06T20:35:12.163Z,3.90
2023-02-06T20:37:42.570Z,3.80
2023-02-06T20:40:13.339Z,3.80
2023-02-06T20:43:02.368Z,3.80
2023-02-06T20:45:38.929Z,3.80
2023-02-06T20:48:18.462Z,3.80
2023-02-06T20:51:03.330Z,3.80
2023-02-06T20:53:40.864Z,3.80
2023-02-06T20:56:15.580Z,3.80
2023-02-06T20:58:54.942Z,3.70
2023-02-06T21:01:46.308Z,3.70
2023-02-06T21:04:26.849Z,3.70
2023-02-06T21:07:09.957Z,3.70
2023-02-06T21:09:47.706Z,3.70
2023-02-06T21:12:27.675Z,3.60
2023-02-06T21:15:17.966Z,3.60
2023-02-06T21:18:09.542Z,3.60
2023-02-06T21:20:52.080Z,3.60
2023-02-06T21:23:38.947Z,3.60
2023-02-06T21:26:18.595Z,3.60
2023-02-06T21:29:03.803Z,3.60
2023-02-06T21:32:00.563Z,3.60
2023-02-06T21:35:01.969Z,3.70
2023-02-06T21:37:39.822Z,3.70
2023-02-06T21:40:13.643Z,3.70
2023-02-06T21:42:56.870Z,3.70
2023-02-06T21:45:40.738Z,3.80
2023-02-06T21:48:24.823Z,3.80
2023-02-06T21:51:05.652Z,3.80
2023-02-06T21:53:43.002Z,3.80
2023-02-06T21:56:16.657Z,3.80
2023-02-06T21:58:47.133Z,3.80
2023-02-06T22:01:17.768Z,3.80
2023-02-06T22:03:47.932Z,3.80
2023-02-06T22:06:20.161Z,3.80
2023-02-06T22:08:52.265Z,3.80
2023-02-06T22:11:23.798Z,3.80
2023-02-06T22:13:53.860Z,3.80
2023-02-06T22:16:23.980Z,3.80
2023-02-06T22:18:53.541Z,3.80
2023-02-06T22:21:26.594Z,3.80
2023-02-06T22:23:59.250Z,3.80
2023-02-06T22:26:30.318Z,3.80
2023-02-06T22:28:59.771Z,3.80
2023-02-06T22:31:32.126Z,3.70
2023-02-06T22:34:02.576Z,3.70
2023-02-06T22:36:34.870Z,3.70
2023-02-06T22:39:06.749Z,3.70
2023-02-06T22:41:37.165Z,3.70
2023-02-06T22:44:06.612Z,3.70
2023-02-06T22:46:37.859Z,3.70
2023-02-06T22:49:08.248Z,3.70
2023-02-06T22:51:39.251Z,3.60
2023-02-06T22:54:10.500Z,3.60
2023-02-06T22:56:59.115Z,3.60
2023-02-06T22:59:28.336Z,3.60
2023-02-06T23:01:58.888Z,3.60
2023-02-06T23:04:29.988Z,3.60
2023-02-06T23:07:00.693Z,3.70
2023-02-06T23:09:32.217Z,3.70
2023-02-06T23:12:02.343Z,3.70
2023-02-06T23:14:33.217Z,3.70
2023-02-06T23:17:03.293Z,3.70
2023-02-06T23:19:32.530Z,3.70
2023-02-06T23:22:02.971Z,3.80
2023-02-06T23:24:32.171Z,3.70
2023-02-06T23:27:01.233Z,3.70
2023-02-06T23:29:30.281Z,3.70
2023-02-06T23:31:59.397Z,3.70
2023-02-06T23:34:28.496Z,3.70
2023-02-06T23:36:57.518Z,3.70
2023-02-06T23:39:28.155Z,3.70
2023-02-06T23:41:57.306Z,3.70
2023-02-06T23:44:26.264Z,3.60
2023-02-06T23:46:55.455Z,3.60
2023-02-06T23:49:24.452Z,3.60
2023-02-06T23:51:53.455Z,3.60
2023-02-06T23:54:22.434Z,3.60
2023-02-06T23:56:53.069Z,3.50
2023-02-06T23:59:22.371Z,3.50
